createdAt,value
2017-01-25T00:00:28.767Z,1016.86
2017-01-25T00:01:09.277Z,1016.98
2017-01-25T00:01:49.817Z,1016.91
2017-01-25T00:02:30.342Z,1016.83
2017-01-25T00:03:10.799Z,1016.91
2017-01-25T00:03:51.344Z,1016.99
2017-01-25T00:04:32.098Z,1016.85
2017-01-25T00:05:12.551Z,1016.86
2017-01-25T00:05:53.087Z,1016.81
2017-01-25T00:06:33.578Z,1016.87
2017-01-25T00:07:14.066Z,1016.79
2017-01-25T00:07:54.577Z,1016.76
2017-01-25T00:08:35.035Z,1016.78
2017-01-25T00:09:15.543Z,1016.77
2017-01-25T00:09:56.007Z,1016.76
2017-01-25T00:10:36.610Z,1016.8
2017-01-25T00:11:17.113Z,1016.81
2017-01-25T00:11:57.580Z,1016.79
2017-01-25T00:12:38.102Z,1016.76
2017-01-25T00:13:18.530Z,1016.9
2017-01-25T00:13:59.113Z,1016.88
2017-01-25T00:14:39.511Z,1016.79
2017-01-25T00:15:20.037Z,1016.79
2017-01-25T00:16:00.586Z,1016.8
2017-01-25T00:16:41.056Z,1016.89
2017-01-25T00:17:21.494Z,1016.73
2017-01-25T00:18:02.023Z,1016.8
2017-01-25T00:18:42.474Z,1016.85
2017-01-25T00:19:23.005Z,1016.9
2017-01-25T00:20:03.440Z,1016.84
2017-01-25T00:20:43.966Z,1016.86
2017-01-25T00:21:24.469Z,1016.86
2017-01-25T00:22:05.001Z,1016.87
2017-01-25T00:22:45.459Z,1016.88
2017-01-25T00:23:25.949Z,1016.9
2017-01-25T00:24:06.776Z,1016.86
2017-01-25T00:24:47.267Z,1016.86
2017-01-25T00:25:27.714Z,1016.89
2017-01-25T00:26:08.220Z,1016.78
2017-01-25T00:26:48.718Z,1016.81
2017-01-25T00:27:29.192Z,1016.99
2017-01-25T00:28:09.666Z,1016.84
2017-01-25T00:28:50.108Z,1017
2017-01-25T00:29:30.608Z,1016.92
2017-01-25T00:30:11.107Z,1016.94
2017-01-25T00:30:51.547Z,1016.97
2017-01-25T00:31:32.003Z,1016.97
2017-01-25T00:32:12.539Z,1017.08
2017-01-25T00:32:53.062Z,1016.99
2017-01-25T00:33:33.507Z,1017.04
2017-01-25T00:34:14.000Z,1016.98
2017-01-25T00:34:54.509Z,1016.91
2017-01-25T00:35:34.995Z,1016.9
2017-01-25T00:36:15.456Z,1017.04
2017-01-25T00:36:55.976Z,1016.86
2017-01-25T00:37:36.501Z,1016.91
2017-01-25T00:38:16.972Z,1016.93
2017-01-25T00:38:57.438Z,1016.87
2017-01-25T00:39:37.905Z,1016.91
2017-01-25T00:40:18.378Z,1016.84
2017-01-25T00:40:58.928Z,1016.89
2017-01-25T00:41:39.364Z,1016.91
2017-01-25T00:42:19.871Z,1016.94
2017-01-25T00:43:00.364Z,1016.93
2017-01-25T00:43:40.820Z,1016.92
2017-01-25T00:44:21.307Z,1016.91
2017-01-25T00:45:01.779Z,1016.99
2017-01-25T00:45:42.323Z,1016.93
2017-01-25T00:46:22.727Z,1016.89
2017-01-25T00:47:03.260Z,1016.87
2017-01-25T00:47:43.767Z,1016.85
2017-01-25T00:48:24.287Z,1016.87
2017-01-25T00:49:04.779Z,1016.86
2017-01-25T00:49:45.265Z,1016.84
2017-01-25T00:50:25.685Z,1016.88
2017-01-25T00:51:06.194Z,1016.9
2017-01-25T00:51:46.684Z,1016.87
2017-01-25T00:52:27.168Z,1016.86
2017-01-25T00:53:07.635Z,1016.89
2017-01-25T00:53:48.188Z,1017.01
2017-01-25T00:54:28.666Z,1016.95
2017-01-25T00:55:09.168Z,1016.97
2017-01-25T00:55:49.667Z,1016.96
2017-01-25T00:56:30.130Z,1017.05
2017-01-25T00:57:10.641Z,1016.9
2017-01-25T00:57:51.070Z,1016.98
2017-01-25T00:58:31.665Z,1016.93
2017-01-25T00:59:12.190Z,1016.88
2017-01-25T00:59:52.680Z,1016.98
2017-01-25T01:00:33.110Z,1016.94
2017-01-25T01:01:13.712Z,1016.93
2017-01-25T01:01:54.258Z,1016.97
2017-01-25T01:02:34.726Z,1016.98
2017-01-25T01:03:15.172Z,1016.85
2017-01-25T01:03:55.695Z,1016.88
2017-01-25T01:04:36.160Z,1016.96
2017-01-25T01:05:16.713Z,1016.9
2017-01-25T01:05:57.174Z,1016.81
2017-01-25T01:06:37.724Z,1016.82
2017-01-25T01:07:18.125Z,1016.9
2017-01-25T01:07:58.672Z,1016.89
2017-01-25T01:08:39.119Z,1016.95
2017-01-25T01:09:19.561Z,1016.86
2017-01-25T01:10:00.087Z,1016.88
2017-01-25T01:10:40.586Z,1016.82
2017-01-25T01:11:21.067Z,1016.85
2017-01-25T01:12:01.534Z,1016.82
2017-01-25T01:12:42.008Z,1016.82
2017-01-25T01:13:22.502Z,1016.81
2017-01-25T01:14:03.010Z,1016.8
2017-01-25T01:14:43.446Z,1016.81
2017-01-25T01:15:23.934Z,1016.82
2017-01-25T01:16:04.471Z,1016.86
2017-01-25T01:16:44.932Z,1016.79
2017-01-25T01:17:25.475Z,1016.81
2017-01-25T01:18:05.975Z,1016.79
2017-01-25T01:18:46.440Z,1016.72
2017-01-25T01:19:27.018Z,1016.81
2017-01-25T01:20:07.504Z,1016.77
2017-01-25T01:20:47.974Z,1016.77
2017-01-25T01:21:28.485Z,1016.71
2017-01-25T01:22:09.016Z,1016.7
2017-01-25T01:22:49.476Z,1016.72
2017-01-25T01:23:29.987Z,1016.7
2017-01-25T01:24:10.450Z,1016.74
2017-01-25T01:24:50.895Z,1016.73
2017-01-25T01:25:31.371Z,1016.71
2017-01-25T01:26:11.891Z,1016.72
2017-01-25T01:26:52.383Z,1016.7
2017-01-25T01:27:32.840Z,1016.74
2017-01-25T01:28:13.344Z,1016.74
2017-01-25T01:28:53.773Z,1016.7
2017-01-25T01:29:34.226Z,1016.72
2017-01-25T01:30:14.723Z,1016.73
2017-01-25T01:30:55.250Z,1016.69
2017-01-25T01:31:35.813Z,1016.68
2017-01-25T01:32:16.200Z,1016.65
2017-01-25T01:32:56.670Z,1016.67
2017-01-25T01:33:37.232Z,1016.7
2017-01-25T01:34:17.690Z,1016.72
2017-01-25T01:34:58.170Z,1016.68
2017-01-25T01:35:38.698Z,1016.65
2017-01-25T01:36:19.209Z,1016.66
2017-01-25T01:36:59.622Z,1016.72
2017-01-25T01:37:40.107Z,1016.71
2017-01-25T01:38:20.619Z,1016.73
2017-01-25T01:39:01.120Z,1016.71
2017-01-25T01:39:41.567Z,1016.69
2017-01-25T01:40:22.097Z,1016.72
2017-01-25T01:41:02.616Z,1016.78
2017-01-25T01:41:43.138Z,1016.69
2017-01-25T01:42:23.649Z,1016.71
2017-01-25T01:43:04.164Z,1016.68
2017-01-25T01:43:44.605Z,1016.68
2017-01-25T01:44:25.079Z,1016.69
2017-01-25T01:45:05.624Z,1016.65
2017-01-25T01:45:46.043Z,1016.75
2017-01-25T01:46:26.524Z,1016.8
2017-01-25T01:47:07.046Z,1016.87
2017-01-25T01:47:47.567Z,1016.76
2017-01-25T01:48:28.060Z,1016.73
2017-01-25T01:49:08.598Z,1016.75
2017-01-25T01:49:49.100Z,1016.77
2017-01-25T01:50:29.640Z,1016.85
2017-01-25T01:51:10.060Z,1016.86
2017-01-25T01:51:50.582Z,1016.67
2017-01-25T01:52:31.080Z,1016.66
2017-01-25T01:53:11.527Z,1016.61
2017-01-25T01:53:52.042Z,1016.6
2017-01-25T01:54:32.840Z,1016.58
2017-01-25T01:55:13.345Z,1016.55
2017-01-25T01:55:53.798Z,1016.61
2017-01-25T01:56:34.365Z,1016.6
2017-01-25T01:57:14.846Z,1016.64
2017-01-25T01:57:55.273Z,1016.6
2017-01-25T01:58:35.779Z,1016.64
2017-01-25T01:59:16.223Z,1016.57
2017-01-25T01:59:56.764Z,1016.56
2017-01-25T02:00:37.198Z,1016.55
2017-01-25T02:01:17.695Z,1016.55
2017-01-25T02:01:58.135Z,1016.59
2017-01-25T02:02:38.708Z,1016.6
2017-01-25T02:03:19.110Z,1016.59
2017-01-25T02:03:59.696Z,1016.58
2017-01-25T02:04:40.156Z,1016.63
2017-01-25T02:05:20.564Z,1016.61
2017-01-25T02:06:01.068Z,1016.69
2017-01-25T02:06:41.577Z,1016.62
2017-01-25T02:07:22.154Z,1016.73
2017-01-25T02:08:02.661Z,1016.65
2017-01-25T02:08:43.167Z,1016.69
2017-01-25T02:09:23.625Z,1016.62
2017-01-25T02:10:04.081Z,1016.66
2017-01-25T02:10:44.585Z,1016.63
2017-01-25T02:11:25.096Z,1016.7
2017-01-25T02:12:05.631Z,1016.67
2017-01-25T02:12:46.136Z,1016.64
2017-01-25T02:13:26.608Z,1016.62
2017-01-25T02:14:07.080Z,1016.6
2017-01-25T02:14:47.581Z,1016.53
2017-01-25T02:15:28.108Z,1016.67
2017-01-25T02:16:08.583Z,1016.57
2017-01-25T02:16:49.122Z,1016.55
2017-01-25T02:17:29.648Z,1016.62
2017-01-25T02:18:10.104Z,1016.6
2017-01-25T02:18:50.555Z,1016.6
2017-01-25T02:19:31.012Z,1016.66
2017-01-25T02:20:11.558Z,1016.53
2017-01-25T02:20:52.035Z,1016.65
2017-01-25T02:21:32.554Z,1016.57
2017-01-25T02:22:13.046Z,1016.57
2017-01-25T02:22:53.507Z,1016.53
2017-01-25T02:25:07.050Z,1016.59
2017-01-25T02:25:47.493Z,1016.59
2017-01-25T02:26:27.970Z,1016.56
2017-01-25T02:27:08.508Z,1016.6
2017-01-25T02:27:50.820Z,1016.64
2017-01-25T02:28:31.331Z,1016.59
2017-01-25T02:29:11.729Z,1016.54
2017-01-25T02:29:52.254Z,1016.7
2017-01-25T02:30:32.723Z,1016.71
2017-01-25T02:31:13.248Z,1016.68
2017-01-25T02:31:53.688Z,1016.6
2017-01-25T02:32:34.217Z,1016.66
2017-01-25T02:33:14.685Z,1016.61
2017-01-25T02:33:55.124Z,1016.6
2017-01-25T02:34:35.613Z,1016.7
2017-01-25T02:35:16.118Z,1016.67
2017-01-25T02:35:56.595Z,1016.67
2017-01-25T02:36:37.073Z,1016.61
2017-01-25T02:37:17.588Z,1016.6
2017-01-25T02:37:58.077Z,1016.61
2017-01-25T02:38:38.548Z,1016.64
2017-01-25T02:39:19.065Z,1016.61
2017-01-25T02:39:59.638Z,1016.59
2017-01-25T02:40:39.995Z,1016.59
2017-01-25T02:41:20.518Z,1016.64
2017-01-25T02:42:01.052Z,1016.66
2017-01-25T02:42:41.529Z,1016.57
2017-01-25T02:43:22.015Z,1016.62
2017-01-25T02:44:02.473Z,1016.59
2017-01-25T02:44:43.066Z,1016.59
2017-01-25T02:45:23.505Z,1016.61
2017-01-25T02:46:03.947Z,1016.57
2017-01-25T02:46:44.399Z,1016.61
2017-01-25T02:47:24.867Z,1016.64
2017-01-25T02:48:05.364Z,1016.67
2017-01-25T02:48:45.910Z,1016.62
2017-01-25T02:49:26.383Z,1016.57
2017-01-25T02:50:06.836Z,1016.62
2017-01-25T02:50:47.313Z,1016.66
2017-01-25T02:51:27.829Z,1016.65
2017-01-25T02:52:08.330Z,1016.65
2017-01-25T02:52:48.805Z,1016.63
2017-01-25T02:53:29.249Z,1016.63
2017-01-25T02:54:09.710Z,1016.63
2017-01-25T02:54:50.254Z,1016.61
2017-01-25T02:55:30.730Z,1016.6
2017-01-25T02:56:11.193Z,1016.57
2017-01-25T02:56:51.727Z,1016.63
2017-01-25T02:57:32.227Z,1016.57
2017-01-25T02:58:12.649Z,1016.62
2017-01-25T02:58:53.334Z,1016.67
2017-01-25T02:59:33.783Z,1016.54
2017-01-25T03:00:14.334Z,1016.56
2017-01-25T03:00:54.742Z,1016.58
2017-01-25T03:01:35.255Z,1016.61
2017-01-25T03:02:15.726Z,1016.6
2017-01-25T03:02:56.234Z,1016.65
2017-01-25T03:03:36.639Z,1016.55
2017-01-25T03:04:17.190Z,1016.58
2017-01-25T03:04:57.683Z,1016.67
2017-01-25T03:05:38.133Z,1016.62
2017-01-25T03:06:18.812Z,1016.62
2017-01-25T03:06:59.293Z,1016.56
2017-01-25T03:07:39.733Z,1016.55
2017-01-25T03:08:20.286Z,1016.64
2017-01-25T03:09:00.747Z,1016.61
2017-01-25T03:09:41.211Z,1016.61
2017-01-25T03:10:21.727Z,1016.59
2017-01-25T03:11:02.227Z,1016.57
2017-01-25T03:11:42.746Z,1016.73
2017-01-25T03:12:23.306Z,1016.64
2017-01-25T03:13:03.724Z,1016.69
2017-01-25T03:13:44.315Z,1016.66
2017-01-25T03:14:24.672Z,1016.59
2017-01-25T03:15:05.178Z,1016.63
2017-01-25T03:15:45.649Z,1016.65
2017-01-25T03:16:26.118Z,1016.68
2017-01-25T03:17:06.595Z,1016.66
2017-01-25T03:17:47.078Z,1016.88
2017-01-25T03:18:27.705Z,1016.66
2017-01-25T03:19:08.196Z,1016.69
2017-01-25T03:19:48.676Z,1016.6
2017-01-25T03:20:29.170Z,1016.6
2017-01-25T03:21:09.680Z,1016.75
2017-01-25T03:21:50.080Z,1016.55
2017-01-25T03:22:30.553Z,1016.62
2017-01-25T03:23:11.082Z,1016.66
2017-01-25T03:23:51.576Z,1016.58
2017-01-25T03:24:32.023Z,1016.63
2017-01-25T03:25:12.524Z,1016.61
2017-01-25T03:25:52.977Z,1016.59
2017-01-25T03:26:33.504Z,1016.61
2017-01-25T03:27:14.141Z,1016.56
2017-01-25T03:27:54.617Z,1016.65
2017-01-25T03:28:35.086Z,1016.66
2017-01-25T03:29:15.557Z,1016.57
2017-01-25T03:29:56.086Z,1016.59
2017-01-25T03:30:36.554Z,1016.57
2017-01-25T03:31:17.057Z,1016.62
2017-01-25T03:31:57.578Z,1016.61
2017-01-25T03:32:38.058Z,1016.66
2017-01-25T03:33:18.575Z,1016.71
2017-01-25T03:33:59.056Z,1016.68
2017-01-25T03:34:39.554Z,1016.66
2017-01-25T03:35:19.971Z,1016.66
2017-01-25T03:36:00.495Z,1016.72
2017-01-25T03:36:40.977Z,1016.68
2017-01-25T03:37:21.485Z,1016.68
2017-01-25T03:38:01.902Z,1016.61
2017-01-25T03:38:42.419Z,1016.67
2017-01-25T03:39:22.963Z,1016.63
2017-01-25T03:40:03.428Z,1016.55
2017-01-25T03:40:43.929Z,1016.61
2017-01-25T03:41:24.415Z,1016.65
2017-01-25T03:42:04.887Z,1016.63
2017-01-25T03:42:45.444Z,1016.57
2017-01-25T03:43:25.958Z,1016.59
2017-01-25T03:44:06.455Z,1016.58
2017-01-25T03:44:46.939Z,1016.62
2017-01-25T03:45:27.465Z,1016.57
2017-01-25T03:46:07.919Z,1016.56
2017-01-25T03:46:48.414Z,1016.51
2017-01-25T03:47:28.944Z,1016.69
2017-01-25T03:48:09.401Z,1016.59
2017-01-25T03:48:49.967Z,1016.75
2017-01-25T03:49:30.397Z,1016.74
2017-01-25T03:50:10.879Z,1016.61
2017-01-25T03:50:51.394Z,1016.57
2017-01-25T03:51:31.904Z,1016.64
2017-01-25T03:52:12.339Z,1016.58
2017-01-25T03:52:52.812Z,1016.61
2017-01-25T03:53:33.333Z,1016.6
2017-01-25T03:54:13.798Z,1016.63
2017-01-25T03:54:54.273Z,1016.66
2017-01-25T03:55:34.756Z,1016.58
2017-01-25T03:56:15.277Z,1016.58
2017-01-25T03:56:55.782Z,1016.58
2017-01-25T03:57:36.230Z,1016.52
2017-01-25T03:58:16.701Z,1016.53
2017-01-25T03:58:57.210Z,1016.53
2017-01-25T03:59:37.674Z,1016.61
2017-01-25T04:00:18.173Z,1016.67
2017-01-25T04:00:58.884Z,1016.59
2017-01-25T04:01:39.454Z,1016.59
2017-01-25T04:02:19.853Z,1016.6
2017-01-25T04:03:00.410Z,1016.54
2017-01-25T04:03:40.854Z,1016.52
2017-01-25T04:04:21.380Z,1016.64
2017-01-25T04:05:01.829Z,1016.49
2017-01-25T04:05:42.349Z,1016.55
2017-01-25T04:06:22.822Z,1016.49
2017-01-25T04:07:03.299Z,1016.5
2017-01-25T04:07:43.816Z,1016.56
2017-01-25T04:08:24.296Z,1016.61
2017-01-25T04:09:04.792Z,1016.57
2017-01-25T04:09:46.084Z,1016.65
2017-01-25T04:10:26.574Z,1016.6
2017-01-25T04:11:07.052Z,1016.51
2017-01-25T04:11:47.558Z,1016.59
2017-01-25T04:12:28.057Z,1016.53
2017-01-25T04:13:08.518Z,1016.5
2017-01-25T04:13:49.108Z,1016.42
2017-01-25T04:14:29.524Z,1016.53
2017-01-25T04:15:10.102Z,1016.45
2017-01-25T04:15:50.605Z,1016.41
2017-01-25T04:16:31.166Z,1016.42
2017-01-25T04:17:11.611Z,1016.36
2017-01-25T04:17:52.157Z,1016.44
2017-01-25T04:18:32.667Z,1016.39
2017-01-25T04:19:13.150Z,1016.4
2017-01-25T04:19:53.626Z,1016.43
2017-01-25T04:20:34.138Z,1016.47
2017-01-25T04:21:14.607Z,1016.5
2017-01-25T04:21:55.069Z,1016.51
2017-01-25T04:22:35.606Z,1016.5
2017-01-25T04:23:16.057Z,1016.56
2017-01-25T04:23:56.558Z,1016.57
2017-01-25T04:24:37.009Z,1016.51
2017-01-25T04:25:17.502Z,1016.47
2017-01-25T04:25:58.048Z,1016.46
2017-01-25T04:26:38.485Z,1016.53
2017-01-25T04:27:19.022Z,1016.51
2017-01-25T04:27:59.490Z,1016.55
2017-01-25T04:28:40.103Z,1016.56
2017-01-25T04:29:20.580Z,1016.55
2017-01-25T04:30:01.038Z,1016.54
2017-01-25T04:30:41.522Z,1016.52
2017-01-25T04:31:22.025Z,1016.47
2017-01-25T04:32:02.667Z,1016.49
2017-01-25T04:32:43.165Z,1016.51
2017-01-25T04:33:23.616Z,1016.5
2017-01-25T04:34:04.148Z,1016.5
2017-01-25T04:34:44.633Z,1016.49
2017-01-25T04:35:25.167Z,1016.52
2017-01-25T04:36:05.608Z,1016.53
2017-01-25T04:36:46.113Z,1016.61
2017-01-25T04:37:26.560Z,1016.52
2017-01-25T04:38:07.054Z,1016.51
2017-01-25T04:38:47.583Z,1016.49
2017-01-25T04:39:27.993Z,1016.51
2017-01-25T04:40:08.495Z,1016.55
2017-01-25T04:40:49.003Z,1016.58
2017-01-25T04:41:29.441Z,1016.67
2017-01-25T04:42:09.984Z,1016.57
2017-01-25T04:42:50.440Z,1016.54
2017-01-25T04:43:30.966Z,1016.64
2017-01-25T04:44:12.118Z,1016.58
2017-01-25T04:44:52.615Z,1016.6
2017-01-25T04:45:33.094Z,1016.56
2017-01-25T04:46:13.554Z,1016.58
2017-01-25T04:46:54.119Z,1016.62
2017-01-25T04:47:34.687Z,1016.54
2017-01-25T04:48:15.296Z,1016.52
2017-01-25T04:48:55.788Z,1016.53
2017-01-25T04:49:36.255Z,1016.51
2017-01-25T04:50:16.762Z,1016.53
2017-01-25T04:50:57.278Z,1016.56
2017-01-25T04:51:37.708Z,1016.58
2017-01-25T04:52:18.210Z,1016.54
2017-01-25T04:52:58.702Z,1016.59
2017-01-25T04:53:39.204Z,1016.53
2017-01-25T04:54:19.673Z,1016.52
2017-01-25T04:55:00.211Z,1016.54
2017-01-25T04:55:40.883Z,1016.53
2017-01-25T04:56:21.361Z,1016.51
2017-01-25T04:57:01.950Z,1016.53
2017-01-25T04:57:42.494Z,1016.5
2017-01-25T04:58:22.965Z,1016.58
2017-01-25T04:59:03.484Z,1016.61
2017-01-25T04:59:43.937Z,1016.59
2017-01-25T05:00:24.467Z,1016.51
2017-01-25T05:01:05.037Z,1016.5
2017-01-25T05:01:45.415Z,1016.7
2017-01-25T05:02:25.940Z,1016.62
2017-01-25T05:03:06.385Z,1016.55
2017-01-25T05:03:47.145Z,1016.58
2017-01-25T05:04:27.577Z,1016.51
2017-01-25T05:05:08.049Z,1016.5
2017-01-25T05:05:48.694Z,1016.5
2017-01-25T05:06:29.204Z,1016.47
2017-01-25T05:07:09.680Z,1016.47
2017-01-25T05:07:50.177Z,1016.54
2017-01-25T05:08:30.699Z,1016.48
2017-01-25T05:09:11.153Z,1016.43
2017-01-25T05:09:51.652Z,1016.52
2017-01-25T05:10:32.150Z,1016.48
2017-01-25T05:11:12.718Z,1016.52
2017-01-25T05:11:53.180Z,1016.46
2017-01-25T05:12:33.664Z,1016.43
2017-01-25T05:13:14.223Z,1016.51
2017-01-25T05:13:54.809Z,1016.42
2017-01-25T05:14:35.319Z,1016.46
2017-01-25T05:15:15.792Z,1016.47
2017-01-25T05:15:56.324Z,1016.5
2017-01-25T05:16:36.846Z,1016.42
2017-01-25T05:17:17.326Z,1016.45
2017-01-25T05:17:57.810Z,1016.43
2017-01-25T05:18:38.284Z,1016.47
2017-01-25T05:19:18.769Z,1016.46
2017-01-25T05:19:59.248Z,1016.46
2017-01-25T05:20:39.801Z,1016.44
2017-01-25T05:21:20.294Z,1016.41
2017-01-25T05:22:00.837Z,1016.47
2017-01-25T05:22:41.271Z,1016.43
2017-01-25T05:23:21.798Z,1016.49
2017-01-25T05:24:02.244Z,1016.56
2017-01-25T05:24:42.710Z,1016.49
2017-01-25T05:25:23.231Z,1016.52
2017-01-25T05:26:03.758Z,1016.53
2017-01-25T05:26:44.288Z,1016.53
2017-01-25T05:27:24.717Z,1016.55
2017-01-25T05:28:05.181Z,1016.55
2017-01-25T05:28:45.706Z,1016.53
2017-01-25T05:29:26.238Z,1016.51
2017-01-25T05:30:06.683Z,1016.5
2017-01-25T05:30:47.162Z,1016.46
2017-01-25T05:31:28.597Z,1016.46
2017-01-25T05:32:09.128Z,1016.47
2017-01-25T05:32:49.553Z,1016.47
2017-01-25T05:33:30.059Z,1016.5
2017-01-25T05:34:10.522Z,1016.44
2017-01-25T05:34:50.998Z,1016.47
2017-01-25T05:35:31.503Z,1016.4
2017-01-25T05:36:12.039Z,1016.43
2017-01-25T05:36:52.497Z,1016.44
2017-01-25T05:37:32.988Z,1016.45
2017-01-25T05:38:13.538Z,1016.42
2017-01-25T05:38:54.257Z,1016.41
2017-01-25T05:39:34.765Z,1016.45
2017-01-25T05:40:15.291Z,1016.42
2017-01-25T05:40:55.814Z,1016.43
2017-01-25T05:41:36.384Z,1016.43
2017-01-25T05:42:16.855Z,1016.4
2017-01-25T05:42:57.380Z,1016.4
2017-01-25T05:43:37.847Z,1016.41
2017-01-25T05:44:18.390Z,1016.39
2017-01-25T05:44:58.916Z,1016.38
2017-01-25T05:45:39.472Z,1016.38
2017-01-25T05:46:19.911Z,1016.4
2017-01-25T05:47:00.456Z,1016.42
2017-01-25T05:47:41.000Z,1016.43
2017-01-25T05:48:21.440Z,1016.45
2017-01-25T05:49:01.933Z,1016.4
2017-01-25T05:49:42.479Z,1016.43
2017-01-25T05:50:22.962Z,1016.43
2017-01-25T05:51:03.415Z,1016.45
2017-01-25T05:51:43.915Z,1016.52
2017-01-25T05:52:24.416Z,1016.48
2017-01-25T05:53:04.901Z,1016.44
2017-01-25T05:53:45.550Z,1016.48
2017-01-25T05:54:26.161Z,1016.55
2017-01-25T05:55:06.681Z,1016.57
2017-01-25T05:55:47.237Z,1016.5
2017-01-25T05:56:27.658Z,1016.48
2017-01-25T05:57:08.132Z,1016.5
2017-01-25T05:57:48.632Z,1016.52
2017-01-25T05:58:29.746Z,1016.53
2017-01-25T05:59:10.182Z,1016.55
2017-01-25T05:59:50.700Z,1016.59
2017-01-25T06:00:31.176Z,1016.5
2017-01-25T06:01:11.657Z,1016.53
2017-01-25T06:01:52.169Z,1016.55
2017-01-25T06:02:32.696Z,1016.49
2017-01-25T06:03:13.294Z,1016.53
2017-01-25T06:03:53.809Z,1016.56
2017-01-25T06:04:34.323Z,1016.5
2017-01-25T06:05:15.101Z,1016.54
2017-01-25T06:05:55.537Z,1016.56
2017-01-25T06:06:36.029Z,1016.55
2017-01-25T06:07:16.457Z,1016.58
2017-01-25T06:07:57.032Z,1016.55
2017-01-25T06:08:37.421Z,1016.5
2017-01-25T06:09:17.968Z,1016.51
2017-01-25T06:09:58.446Z,1016.49
2017-01-25T06:10:38.952Z,1016.53
2017-01-25T06:11:19.452Z,1016.51
2017-01-25T06:12:00.008Z,1016.48
2017-01-25T06:12:40.463Z,1016.58
2017-01-25T06:13:21.020Z,1016.61
2017-01-25T06:14:01.546Z,1016.57
2017-01-25T06:14:43.104Z,1016.66
2017-01-25T06:15:33.802Z,1016.53
2017-01-25T06:16:14.081Z,1016.59
2017-01-25T06:16:56.754Z,1016.54
2017-01-25T06:17:40.000Z,1016.55
2017-01-25T06:18:28.277Z,1016.51
2017-01-25T06:19:09.699Z,1016.57
2017-01-25T06:19:50.213Z,1016.54
2017-01-25T06:20:37.961Z,1016.6
2017-01-25T06:24:20.167Z,1016.47
2017-01-25T06:26:54.367Z,1016.49
2017-01-25T06:27:35.500Z,1016.48
2017-01-25T06:28:17.222Z,1016.44
2017-01-25T06:28:58.096Z,1016.44
2017-01-25T06:29:44.002Z,1016.49
2017-01-25T06:30:24.187Z,1016.51
2017-01-25T06:31:05.196Z,1016.48
2017-01-25T06:31:45.696Z,1016.55
2017-01-25T06:32:26.852Z,1016.5
2017-01-25T06:33:11.400Z,1016.47
2017-01-25T06:33:52.198Z,1016.54
2017-01-25T06:34:34.163Z,1016.5
2017-01-25T06:35:16.914Z,1016.54
2017-01-25T06:35:58.032Z,1016.49
2017-01-25T06:36:39.863Z,1016.5
2017-01-25T06:37:21.895Z,1016.53
2017-01-25T06:38:02.341Z,1016.62
2017-01-25T06:38:42.839Z,1016.57
2017-01-25T06:39:23.382Z,1016.57
2017-01-25T06:40:03.837Z,1016.59
2017-01-25T06:40:44.305Z,1016.58
2017-01-25T06:41:24.727Z,1016.59
2017-01-25T06:42:05.242Z,1016.57
2017-01-25T06:42:45.711Z,1016.59
2017-01-25T06:43:26.193Z,1016.54
2017-01-25T06:44:06.717Z,1016.61
2017-01-25T06:44:47.330Z,1016.58
2017-01-25T06:45:27.834Z,1016.58
2017-01-25T06:46:08.293Z,1016.59
2017-01-25T06:46:48.848Z,1016.62
2017-01-25T06:47:29.395Z,1016.6
2017-01-25T06:48:09.898Z,1016.58
2017-01-25T06:48:50.471Z,1016.62
2017-01-25T06:49:30.934Z,1016.62
2017-01-25T06:50:11.464Z,1016.58
2017-01-25T06:50:51.925Z,1016.61
2017-01-25T06:51:32.545Z,1016.63
2017-01-25T06:52:13.019Z,1016.59
2017-01-25T06:52:53.504Z,1016.61
2017-01-25T06:53:34.074Z,1016.63
2017-01-25T06:54:14.583Z,1016.63
2017-01-25T06:54:55.134Z,1016.63
2017-01-25T06:55:35.576Z,1016.63
2017-01-25T06:56:16.038Z,1016.7
2017-01-25T06:56:56.588Z,1016.75
2017-01-25T06:57:37.047Z,1016.69
2017-01-25T06:58:17.549Z,1016.69
2017-01-25T06:58:58.029Z,1016.65
2017-01-25T06:59:38.576Z,1016.65
2017-01-25T07:00:19.089Z,1016.68
2017-01-25T07:00:59.512Z,1016.64
2017-01-25T07:01:40.018Z,1016.77
2017-01-25T07:02:20.483Z,1016.77
2017-01-25T07:03:00.992Z,1016.72
2017-01-25T07:03:41.436Z,1016.75
2017-01-25T07:04:21.925Z,1016.7
2017-01-25T07:05:02.438Z,1016.71
2017-01-25T07:05:42.986Z,1016.77
2017-01-25T07:06:23.462Z,1016.72
2017-01-25T07:07:03.963Z,1016.76
2017-01-25T07:07:44.450Z,1016.71
2017-01-25T07:08:25.074Z,1016.85
2017-01-25T07:09:05.507Z,1016.85
2017-01-25T07:09:45.974Z,1016.86
2017-01-25T07:10:26.423Z,1016.78
2017-01-25T07:11:06.920Z,1016.77
2017-01-25T07:11:47.426Z,1016.72
2017-01-25T07:12:27.894Z,1016.78
2017-01-25T07:13:08.435Z,1016.75
2017-01-25T07:13:49.094Z,1016.72
2017-01-25T07:14:29.882Z,1016.79
2017-01-25T07:15:10.357Z,1016.85
2017-01-25T07:15:50.770Z,1016.75
2017-01-25T07:16:31.311Z,1016.73
2017-01-25T07:17:11.785Z,1016.71
2017-01-25T07:17:52.256Z,1016.75
2017-01-25T07:18:32.742Z,1016.74
2017-01-25T07:19:13.334Z,1016.72
2017-01-25T07:19:53.817Z,1016.77
2017-01-25T07:20:34.321Z,1016.74
2017-01-25T07:21:14.809Z,1016.77
2017-01-25T07:21:55.272Z,1016.73
2017-01-25T07:22:35.757Z,1016.71
2017-01-25T07:23:16.266Z,1016.8
2017-01-25T07:23:56.793Z,1016.74
2017-01-25T07:24:37.257Z,1016.76
2017-01-25T07:25:17.768Z,1016.82
2017-01-25T07:25:58.271Z,1016.83
2017-01-25T07:26:38.764Z,1016.85
2017-01-25T07:27:19.263Z,1016.92
2017-01-25T07:27:59.816Z,1016.82
2017-01-25T07:28:40.302Z,1016.87
2017-01-25T07:29:20.810Z,1016.84
2017-01-25T07:30:01.286Z,1016.85
2017-01-25T07:30:41.777Z,1016.9
2017-01-25T07:31:22.295Z,1016.98
2017-01-25T07:32:02.853Z,1016.89
2017-01-25T07:32:43.268Z,1016.86
2017-01-25T07:33:23.764Z,1016.93
2017-01-25T07:34:04.263Z,1016.93
2017-01-25T07:34:44.757Z,1016.91
2017-01-25T07:35:25.280Z,1016.87
2017-01-25T07:36:05.748Z,1016.87
2017-01-25T07:36:46.253Z,1016.82
2017-01-25T07:37:26.715Z,1016.89
2017-01-25T07:38:07.168Z,1016.96
2017-01-25T07:38:47.643Z,1016.89
2017-01-25T07:39:28.190Z,1016.91
2017-01-25T07:40:08.735Z,1016.9
2017-01-25T07:40:49.205Z,1016.89
2017-01-25T07:41:29.634Z,1016.91
2017-01-25T07:42:10.094Z,1016.87
2017-01-25T07:42:50.569Z,1016.95
2017-01-25T07:43:31.963Z,1016.83
2017-01-25T07:44:12.442Z,1016.83
2017-01-25T07:44:52.918Z,1016.9
2017-01-25T07:45:33.362Z,1016.9
2017-01-25T07:46:13.878Z,1016.89
2017-01-25T07:46:54.411Z,1016.93
2017-01-25T07:47:34.928Z,1016.97
2017-01-25T07:48:15.396Z,1016.98
2017-01-25T07:48:55.869Z,1016.93
2017-01-25T07:49:36.371Z,1016.92
2017-01-25T07:50:16.899Z,1016.93
2017-01-25T07:50:57.371Z,1016.97
2017-01-25T07:51:37.979Z,1016.97
2017-01-25T07:52:18.454Z,1016.97
2017-01-25T07:52:58.974Z,1017
2017-01-25T07:53:40.076Z,1016.96
2017-01-25T07:54:20.019Z,1016.99
2017-01-25T07:55:00.450Z,1016.93
2017-01-25T07:55:40.948Z,1016.95
2017-01-25T07:56:21.502Z,1017
2017-01-25T07:57:01.998Z,1016.98
2017-01-25T07:57:42.542Z,1016.99
2017-01-25T07:58:22.999Z,1017.01
2017-01-25T07:59:03.518Z,1017.06
2017-01-25T07:59:44.001Z,1017.03
2017-01-25T08:00:24.689Z,1017.03
2017-01-25T08:01:05.199Z,1017
2017-01-25T08:01:45.707Z,1017
2017-01-25T08:02:26.196Z,1017
2017-01-25T08:03:06.723Z,1017.04
2017-01-25T08:03:47.167Z,1016.97
2017-01-25T08:04:27.643Z,1016.96
2017-01-25T08:05:08.170Z,1016.98
2017-01-25T08:05:48.645Z,1016.98
2017-01-25T08:06:29.096Z,1016.97
2017-01-25T08:07:09.617Z,1016.98
2017-01-25T08:07:50.074Z,1016.91
2017-01-25T08:08:30.569Z,1016.97
2017-01-25T08:09:11.042Z,1016.99
2017-01-25T08:09:51.550Z,1017.04
2017-01-25T08:10:32.121Z,1017.09
2017-01-25T08:11:12.590Z,1017.02
2017-01-25T08:11:53.078Z,1017.02
2017-01-25T08:12:33.534Z,1016.99
2017-01-25T08:13:14.037Z,1017.14
2017-01-25T08:13:54.509Z,1017.05
2017-01-25T08:14:34.971Z,1017.01
2017-01-25T08:15:15.468Z,1016.95
2017-01-25T08:15:56.007Z,1017.03
2017-01-25T08:16:36.473Z,1016.97
2017-01-25T08:17:17.009Z,1017.02
2017-01-25T08:17:57.481Z,1016.97
2017-01-25T08:18:37.967Z,1016.98
2017-01-25T08:19:18.486Z,1016.99